sensor_id;sensor_type;location;lat;lon;timestamp;P1;durP1;ratioP1;P2;durP2;ratioP2
27402;SDS011;14862;49.494;8.530;2023-07-30T00:01:26;2.03;;;1.90;;
27402;SDS011;14862;49.494;8.530;2023-07-30T00:03:51;2.28;;;2.03;;
27402;SDS011;14862;49.494;8.530;2023-07-30T00:06:16;1.97;;;1.87;;
27402;SDS011;14862;49.494;8.530;2023-07-30T00:08:41;2.87;;;2.03;;
27402;SDS011;14862;49.494;8.530;2023-07-30T00:11:07;2.10;;;1.90;;
27402;SDS011;14862;49.494;8.530;2023-07-30T00:13:32;1.87;;;1.77;;
27402;SDS011;14862;49.494;8.530;2023-07-30T00:15:57;3.20;;;1.93;;
27402;SDS011;14862;49.494;8.530;2023-07-30T00:18:22;2.47;;;1.80;;
27402;SDS011;14862;49.494;8.530;2023-07-30T00:20:47;1.90;;;1.80;;
27402;SDS011;14862;49.494;8.530;2023-07-30T00:23:13;2.03;;;1.60;;
27402;SDS011;14862;49.494;8.530;2023-07-30T00:25:38;1.60;;;1.50;;
27402;SDS011;14862;49.494;8.530;2023-07-30T00:28:03;3.25;;;1.80;;
27402;SDS011;14862;49.494;8.530;2023-07-30T00:30:28;4.63;;;1.80;;
27402;SDS011;14862;49.494;8.530;2023-07-30T00:32:53;1.83;;;1.43;;
27402;SDS011;14862;49.494;8.530;2023-07-30T00:35:19;1.97;;;1.43;;
27402;SDS011;14862;49.494;8.530;2023-07-30T00:37:44;1.63;;;1.50;;
27402;SDS011;14862;49.494;8.530;2023-07-30T00:40:09;1.65;;;1.30;;
27402;SDS011;14862;49.494;8.530;2023-07-30T00:42:35;1.70;;;1.45;;
27402;SDS011;14862;49.494;8.530;2023-07-30T00:45:00;2.37;;;1.90;;
27402;SDS011;14862;49.494;8.530;2023-07-30T00:47:25;2.80;;;1.47;;
27402;SDS011;14862;49.494;8.530;2023-07-30T00:49:50;2.15;;;1.80;;
27402;SDS011;14862;49.494;8.530;2023-07-30T00:52:16;1.83;;;1.73;;
27402;SDS011;14862;49.494;8.530;2023-07-30T00:54:42;1.88;;;1.63;;
27402;SDS011;14862;49.494;8.530;2023-07-30T00:57:07;2.20;;;1.57;;
27402;SDS011;14862;49.494;8.530;2023-07-30T00:59:33;2.08;;;1.63;;
27402;SDS011;14862;49.494;8.530;2023-07-30T01:01:59;2.85;;;1.83;;
27402;SDS011;14862;49.494;8.530;2023-07-30T01:04:24;2.15;;;1.80;;
27402;SDS011;14862;49.494;8.530;2023-07-30T01:06:50;3.47;;;1.52;;
27402;SDS011;14862;49.494;8.530;2023-07-30T01:09:15;4.40;;;2.22;;
27402;SDS011;14862;49.494;8.530;2023-07-30T01:11:40;2.38;;;1.90;;
27402;SDS011;14862;49.494;8.530;2023-07-30T01:14:06;2.20;;;2.00;;
27402;SDS011;14862;49.494;8.530;2023-07-30T01:16:33;3.42;;;2.28;;
27402;SDS011;14862;49.494;8.530;2023-07-30T01:18:58;3.90;;;1.90;;
27402;SDS011;14862;49.494;8.530;2023-07-30T01:21:26;2.40;;;1.92;;
27402;SDS011;14862;49.494;8.530;2023-07-30T01:23:51;2.78;;;1.90;;
27402;SDS011;14862;49.494;8.530;2023-07-30T01:26:22;2.30;;;2.10;;
27402;SDS011;14862;49.494;8.530;2023-07-30T01:28:48;3.35;;;2.20;;
27402;SDS011;14862;49.494;8.530;2023-07-30T01:31:14;3.47;;;2.05;;
27402;SDS011;14862;49.494;8.530;2023-07-30T01:33:40;3.58;;;2.38;;
27402;SDS011;14862;49.494;8.530;2023-07-30T01:36:06;3.42;;;2.30;;
27402;SDS011;14862;49.494;8.530;2023-07-30T01:38:33;2.78;;;1.90;;
27402;SDS011;14862;49.494;8.530;2023-07-30T01:40:58;3.33;;;2.13;;
27402;SDS011;14862;49.494;8.530;2023-07-30T01:43:24;4.88;;;2.25;;
27402;SDS011;14862;49.494;8.530;2023-07-30T01:45:49;3.03;;;2.30;;
27402;SDS011;14862;49.494;8.530;2023-07-30T01:48:14;3.07;;;2.10;;
27402;SDS011;14862;49.494;8.530;2023-07-30T01:50:39;3.42;;;2.20;;
27402;SDS011;14862;49.494;8.530;2023-07-30T01:53:04;2.20;;;2.00;;
27402;SDS011;14862;49.494;8.530;2023-07-30T01:55:30;3.53;;;2.20;;
27402;SDS011;14862;49.494;8.530;2023-07-30T01:57:55;2.40;;;2.10;;
27402;SDS011;14862;49.494;8.530;2023-07-30T02:00:20;2.65;;;1.92;;
27402;SDS011;14862;49.494;8.530;2023-07-30T02:02:45;2.87;;;2.13;;
27402;SDS011;14862;49.494;8.530;2023-07-30T02:05:10;3.08;;;2.40;;
27402;SDS011;14862;49.494;8.530;2023-07-30T02:07:36;2.97;;;2.40;;
27402;SDS011;14862;49.494;8.530;2023-07-30T02:10:01;2.90;;;2.00;;
27402;SDS011;14862;49.494;8.530;2023-07-30T02:12:26;4.85;;;2.50;;
27402;SDS011;14862;49.494;8.530;2023-07-30T02:14:51;4.10;;;2.53;;
27402;SDS011;14862;49.494;8.530;2023-07-30T02:17:17;5.60;;;2.30;;
27402;SDS011;14862;49.494;8.530;2023-07-30T02:19:42;2.63;;;2.30;;
27402;SDS011;14862;49.494;8.530;2023-07-30T02:22:07;2.60;;;2.40;;
27402;SDS011;14862;49.494;8.530;2023-07-30T02:24:32;4.17;;;2.70;;
27402;SDS011;14862;49.494;8.530;2023-07-30T02:26:57;5.00;;;2.60;;
27402;SDS011;14862;49.494;8.530;2023-07-30T02:29:23;2.83;;;2.23;;
27402;SDS011;14862;49.494;8.530;2023-07-30T02:31:48;2.80;;;2.50;;
27402;SDS011;14862;49.494;8.530;2023-07-30T02:34:13;3.75;;;2.65;;
27402;SDS011;14862;49.494;8.530;2023-07-30T02:36:38;5.20;;;2.58;;
27402;SDS011;14862;49.494;8.530;2023-07-30T02:39:04;7.10;;;2.63;;
27402;SDS011;14862;49.494;8.530;2023-07-30T02:41:29;7.65;;;3.10;;
27402;SDS011;14862;49.494;8.530;2023-07-30T02:43:54;3.80;;;3.40;;
27402;SDS011;14862;49.494;8.530;2023-07-30T02:46:19;3.87;;;3.40;;
27402;SDS011;14862;49.494;8.530;2023-07-30T02:48:44;3.93;;;3.30;;
27402;SDS011;14862;49.494;8.530;2023-07-30T02:51:10;4.17;;;3.77;;
27402;SDS011;14862;49.494;8.530;2023-07-30T02:53:35;5.27;;;3.97;;
27402;SDS011;14862;49.494;8.530;2023-07-30T02:56:00;6.63;;;3.80;;
27402;SDS011;14862;49.494;8.530;2023-07-30T02:58:25;4.38;;;3.90;;
27402;SDS011;14862;49.494;8.530;2023-07-30T03:00:50;4.37;;;3.97;;
27402;SDS011;14862;49.494;8.530;2023-07-30T03:03:16;4.30;;;3.90;;
27402;SDS011;14862;49.494;8.530;2023-07-30T03:05:41;4.75;;;4.03;;
27402;SDS011;14862;49.494;8.530;2023-07-30T03:08:07;4.22;;;3.83;;
27402;SDS011;14862;49.494;8.530;2023-07-30T03:10:32;4.50;;;4.10;;
27402;SDS011;14862;49.494;8.530;2023-07-30T03:12:57;5.37;;;4.37;;
27402;SDS011;14862;49.494;8.530;2023-07-30T03:15:23;6.33;;;4.47;;
27402;SDS011;14862;49.494;8.530;2023-07-30T03:17:48;8.10;;;4.53;;
27402;SDS011;14862;49.494;8.530;2023-07-30T03:20:13;7.27;;;4.40;;
27402;SDS011;14862;49.494;8.530;2023-07-30T03:22:38;4.95;;;4.20;;
27402;SDS011;14862;49.494;8.530;2023-07-30T03:25:04;5.67;;;4.10;;
27402;SDS011;14862;49.494;8.530;2023-07-30T03:27:29;5.93;;;4.22;;
27402;SDS011;14862;49.494;8.530;2023-07-30T03:29:54;5.33;;;4.30;;
27402;SDS011;14862;49.494;8.530;2023-07-30T03:32:19;4.63;;;4.23;;
27402;SDS011;14862;49.494;8.530;2023-07-30T03:34:44;4.83;;;4.40;;
27402;SDS011;14862;49.494;8.530;2023-07-30T03:37:10;6.80;;;4.87;;
27402;SDS011;14862;49.494;8.530;2023-07-30T03:39:35;5.73;;;4.93;;
27402;SDS011;14862;49.494;8.530;2023-07-30T03:42:00;5.07;;;4.30;;
27402;SDS011;14862;49.494;8.530;2023-07-30T03:44:26;4.93;;;4.40;;
27402;SDS011;14862;49.494;8.530;2023-07-30T03:46:51;7.28;;;5.00;;
27402;SDS011;14862;49.494;8.530;2023-07-30T03:49:16;6.47;;;4.60;;
27402;SDS011;14862;49.494;8.530;2023-07-30T03:51:41;4.80;;;4.30;;
27402;SDS011;14862;49.494;8.530;2023-07-30T03:54:06;5.50;;;4.57;;
27402;SDS011;14862;49.494;8.530;2023-07-30T03:56:32;7.13;;;5.10;;
27402;SDS011;14862;49.494;8.530;2023-07-30T03:58:57;4.88;;;4.38;;
27402;SDS011;14862;49.494;8.530;2023-07-30T04:01:22;5.13;;;4.60;;
27402;SDS011;14862;49.494;8.530;2023-07-30T04:03:47;5.28;;;4.88;;
27402;SDS011;14862;49.494;8.530;2023-07-30T04:06:13;5.63;;;5.07;;
27402;SDS011;14862;49.494;8.530;2023-07-30T04:08:38;5.13;;;4.60;;
27402;SDS011;14862;49.494;8.530;2023-07-30T04:11:03;5.82;;;4.65;;
27402;SDS011;14862;49.494;8.530;2023-07-30T04:13:28;6.10;;;5.22;;
27402;SDS011;14862;49.494;8.530;2023-07-30T04:15:54;6.10;;;5.17;;
27402;SDS011;14862;49.494;8.530;2023-07-30T04:18:19;7.17;;;5.50;;
27402;SDS011;14862;49.494;8.530;2023-07-30T04:20:44;5.97;;;4.75;;
27402;SDS011;14862;49.494;8.530;2023-07-30T04:23:10;5.20;;;4.70;;
27402;SDS011;14862;49.494;8.530;2023-07-30T04:25:35;5.33;;;4.83;;
27402;SDS011;14862;49.494;8.530;2023-07-30T04:28:00;5.33;;;4.83;;
27402;SDS011;14862;49.494;8.530;2023-07-30T04:30:25;6.03;;;4.65;;
27402;SDS011;14862;49.494;8.530;2023-07-30T04:32:50;6.03;;;4.57;;
27402;SDS011;14862;49.494;8.530;2023-07-30T04:35:16;6.93;;;4.87;;
27402;SDS011;14862;49.494;8.530;2023-07-30T04:37:41;7.50;;;5.60;;
27402;SDS011;14862;49.494;8.530;2023-07-30T04:40:06;5.80;;;5.10;;
27402;SDS011;14862;49.494;8.530;2023-07-30T04:42:32;8.25;;;5.10;;
27402;SDS011;14862;49.494;8.530;2023-07-30T04:44:57;6.10;;;5.50;;
27402;SDS011;14862;49.494;8.530;2023-07-30T04:47:22;6.50;;;5.30;;
27402;SDS011;14862;49.494;8.530;2023-07-30T04:49:47;7.77;;;5.67;;
27402;SDS011;14862;49.494;8.530;2023-07-30T04:52:12;6.77;;;4.50;;
27402;SDS011;14862;49.494;8.530;2023-07-30T04:54:38;7.50;;;5.03;;
27402;SDS011;14862;49.494;8.530;2023-07-30T04:57:03;4.97;;;4.45;;
27402;SDS011;14862;49.494;8.530;2023-07-30T04:59:28;5.78;;;4.70;;
27402;SDS011;14862;49.494;8.530;2023-07-30T05:01:54;6.70;;;5.00;;
27402;SDS011;14862;49.494;8.530;2023-07-30T05:04:19;6.97;;;4.40;;
27402;SDS011;14862;49.494;8.530;2023-07-30T05:06:44;8.63;;;4.60;;
27402;SDS011;14862;49.494;8.530;2023-07-30T05:09:09;7.10;;;4.70;;
27402;SDS011;14862;49.494;8.530;2023-07-30T05:11:36;7.22;;;4.30;;
27402;SDS011;14862;49.494;8.530;2023-07-30T05:14:01;7.85;;;4.63;;
27402;SDS011;14862;49.494;8.530;2023-07-30T05:16:26;5.80;;;4.50;;
27402;SDS011;14862;49.494;8.530;2023-07-30T05:18:52;5.27;;;4.43;;
27402;SDS011;14862;49.494;8.530;2023-07-30T05:21:17;6.72;;;4.13;;
27402;SDS011;14862;49.494;8.530;2023-07-30T05:23:42;4.47;;;4.07;;
27402;SDS011;14862;49.494;8.530;2023-07-30T05:26:07;4.30;;;3.90;;
27402;SDS011;14862;49.494;8.530;2023-07-30T05:28:32;3.47;;;3.13;;
27402;SDS011;14862;49.494;8.530;2023-07-30T05:30:58;4.10;;;2.88;;
27402;SDS011;14862;49.494;8.530;2023-07-30T05:33:23;4.28;;;2.63;;
27402;SDS011;14862;49.494;8.530;2023-07-30T05:35:48;2.80;;;2.60;;
27402;SDS011;14862;49.494;8.530;2023-07-30T05:38:13;3.33;;;2.17;;
27402;SDS011;14862;49.494;8.530;2023-07-30T05:40:38;3.90;;;2.40;;
27402;SDS011;14862;49.494;8.530;2023-07-30T05:43:04;3.67;;;2.30;;
27402;SDS011;14862;49.494;8.530;2023-07-30T05:45:29;3.50;;;2.33;;
27402;SDS011;14862;49.494;8.530;2023-07-30T05:47:54;3.55;;;2.28;;
27402;SDS011;14862;49.494;8.530;2023-07-30T05:50:19;5.50;;;2.53;;
27402;SDS011;14862;49.494;8.530;2023-07-30T05:52:45;5.00;;;2.40;;
27402;SDS011;14862;49.494;8.530;2023-07-30T05:55:10;2.53;;;2.33;;
27402;SDS011;14862;49.494;8.530;2023-07-30T05:57:36;2.63;;;2.35;;
27402;SDS011;14862;49.494;8.530;2023-07-30T06:00:02;5.55;;;2.78;;
27402;SDS011;14862;49.494;8.530;2023-07-30T06:02:27;4.90;;;2.33;;
27402;SDS011;14862;49.494;8.530;2023-07-30T06:04:52;3.27;;;2.17;;
27402;SDS011;14862;49.494;8.530;2023-07-30T06:07:17;2.73;;;2.13;;
27402;SDS011;14862;49.494;8.530;2023-07-30T06:09:42;6.70;;;2.40;;
27402;SDS011;14862;49.494;8.530;2023-07-30T06:12:08;2.85;;;2.50;;
27402;SDS011;14862;49.494;8.530;2023-07-30T06:14:33;5.45;;;2.38;;
27402;SDS011;14862;49.494;8.530;2023-07-30T06:16:58;5.10;;;2.57;;
27402;SDS011;14862;49.494;8.530;2023-07-30T06:19:24;4.23;;;2.27;;
27402;SDS011;14862;49.494;8.530;2023-07-30T06:21:49;3.23;;;2.43;;
27402;SDS011;14862;49.494;8.530;2023-07-30T06:24:14;5.33;;;2.20;;
27402;SDS011;14862;49.494;8.530;2023-07-30T06:26:39;5.67;;;2.77;;
27402;SDS011;14862;49.494;8.530;2023-07-30T06:29:04;3.73;;;2.07;;
27402;SDS011;14862;49.494;8.530;2023-07-30T06:31:30;3.17;;;2.00;;
27402;SDS011;14862;49.494;8.530;2023-07-30T06:33:55;3.75;;;2.40;;
27402;SDS011;14862;49.494;8.530;2023-07-30T06:36:20;2.72;;;2.50;;
27402;SDS011;14862;49.494;8.530;2023-07-30T06:38:45;4.60;;;2.20;;
27402;SDS011;14862;49.494;8.530;2023-07-30T06:41:11;2.80;;;2.40;;
27402;SDS011;14862;49.494;8.530;2023-07-30T06:43:36;5.13;;;2.60;;
27402;SDS011;14862;49.494;8.530;2023-07-30T06:46:01;4.10;;;2.60;;
27402;SDS011;14862;49.494;8.530;2023-07-30T06:48:26;2.53;;;2.08;;
27402;SDS011;14862;49.494;8.530;2023-07-30T06:50:52;3.20;;;2.17;;
27402;SDS011;14862;49.494;8.530;2023-07-30T06:53:17;6.25;;;2.15;;
27402;SDS011;14862;49.494;8.530;2023-07-30T06:55:42;3.23;;;1.73;;
27402;SDS011;14862;49.494;8.530;2023-07-30T06:58:07;4.43;;;2.00;;
27402;SDS011;14862;49.494;8.530;2023-07-30T07:00:33;2.55;;;2.05;;
27402;SDS011;14862;49.494;8.530;2023-07-30T07:02:58;4.17;;;2.23;;
27402;SDS011;14862;49.494;8.530;2023-07-30T07:05:23;2.28;;;1.98;;
27402;SDS011;14862;49.494;8.530;2023-07-30T07:07:48;2.07;;;1.97;;
27402;SDS011;14862;49.494;8.530;2023-07-30T07:10:14;3.78;;;1.67;;
27402;SDS011;14862;49.494;8.530;2023-07-30T07:12:39;2.35;;;2.15;;
27402;SDS011;14862;49.494;8.530;2023-07-30T07:15:05;2.70;;;2.00;;
27402;SDS011;14862;49.494;8.530;2023-07-30T07:17:30;1.98;;;1.88;;
27402;SDS011;14862;49.494;8.530;2023-07-30T07:19:56;2.35;;;2.15;;
27402;SDS011;14862;49.494;8.530;2023-07-30T07:22:21;2.22;;;2.03;;
27402;SDS011;14862;49.494;8.530;2023-07-30T07:24:47;2.75;;;2.03;;
27402;SDS011;14862;49.494;8.530;2023-07-30T07:27:12;2.97;;;2.30;;
27402;SDS011;14862;49.494;8.530;2023-07-30T07:29:37;2.37;;;2.10;;
27402;SDS011;14862;49.494;8.530;2023-07-30T07:32:03;2.50;;;2.30;;
27402;SDS011;14862;49.494;8.530;2023-07-30T07:34:28;3.67;;;2.10;;
27402;SDS011;14862;49.494;8.530;2023-07-30T07:36:53;3.05;;;2.67;;
27402;SDS011;14862;49.494;8.530;2023-07-30T07:39:19;4.57;;;2.60;;
27402;SDS011;14862;49.494;8.530;2023-07-30T07:41:44;4.38;;;3.10;;
27402;SDS011;14862;49.494;8.530;2023-07-30T07:44:09;7.37;;;2.80;;
27402;SDS011;14862;49.494;8.530;2023-07-30T07:46:34;4.47;;;3.40;;
27402;SDS011;14862;49.494;8.530;2023-07-30T07:49:00;3.42;;;3.08;;
27402;SDS011;14862;49.494;8.530;2023-07-30T07:51:25;4.05;;;3.03;;
27402;SDS011;14862;49.494;8.530;2023-07-30T07:53:50;3.33;;;2.17;;
27402;SDS011;14862;49.494;8.530;2023-07-30T07:56:15;4.13;;;2.40;;
27402;SDS011;14862;49.494;8.530;2023-07-30T07:58:41;2.20;;;1.93;;
27402;SDS011;14862;49.494;8.530;2023-07-30T08:01:07;4.53;;;1.90;;
27402;SDS011;14862;49.494;8.530;2023-07-30T08:03:33;2.53;;;2.33;;
27402;SDS011;14862;49.494;8.530;2023-07-30T08:05:58;3.67;;;2.37;;
27402;SDS011;14862;49.494;8.530;2023-07-30T08:08:24;3.13;;;1.83;;
27402;SDS011;14862;49.494;8.530;2023-07-30T08:10:50;2.13;;;1.92;;
27402;SDS011;14862;49.494;8.530;2023-07-30T08:13:15;1.53;;;1.43;;
27402;SDS011;14862;49.494;8.530;2023-07-30T08:15:40;2.67;;;1.67;;
27402;SDS011;14862;49.494;8.530;2023-07-30T08:18:05;3.43;;;1.80;;
27402;SDS011;14862;49.494;8.530;2023-07-30T08:20:31;2.47;;;1.60;;
27402;SDS011;14862;49.494;8.530;2023-07-30T08:22:56;5.28;;;1.90;;
27402;SDS011;14862;49.494;8.530;2023-07-30T08:25:21;1.83;;;1.63;;
27402;SDS011;14862;49.494;8.530;2023-07-30T08:27:46;3.30;;;1.83;;
27402;SDS011;14862;49.494;8.530;2023-07-30T08:30:12;1.90;;;1.80;;
27402;SDS011;14862;49.494;8.530;2023-07-30T08:32:37;7.28;;;1.77;;
27402;SDS011;14862;49.494;8.530;2023-07-30T08:35:03;3.40;;;1.90;;
27402;SDS011;14862;49.494;8.530;2023-07-30T08:37:28;3.15;;;1.50;;
27402;SDS011;14862;49.494;8.530;2023-07-30T08:40:00;1.92;;;1.50;;
27402;SDS011;14862;49.494;8.530;2023-07-30T08:42:25;1.65;;;1.52;;
27402;SDS011;14862;49.494;8.530;2023-07-30T08:44:50;3.60;;;1.50;;
27402;SDS011;14862;49.494;8.530;2023-07-30T08:47:15;1.83;;;1.73;;
27402;SDS011;14862;49.494;8.530;2023-07-30T08:49:40;1.93;;;1.70;;
27402;SDS011;14862;49.494;8.530;2023-07-30T08:52:07;3.38;;;1.48;;
27402;SDS011;14862;49.494;8.530;2023-07-30T08:54:33;3.53;;;1.55;;
27402;SDS011;14862;49.494;8.530;2023-07-30T08:56:58;2.75;;;1.98;;
27402;SDS011;14862;49.494;8.530;2023-07-30T08:59:24;1.60;;;1.40;;
27402;SDS011;14862;49.494;8.530;2023-07-30T09:01:52;3.70;;;1.40;;
27402;SDS011;14862;49.494;8.530;2023-07-30T09:04:18;1.85;;;1.67;;
27402;SDS011;14862;49.494;8.530;2023-07-30T09:06:47;1.50;;;1.23;;
27402;SDS011;14862;49.494;8.530;2023-07-30T09:09:13;4.57;;;1.70;;
27402;SDS011;14862;49.494;8.530;2023-07-30T09:11:38;1.58;;;1.45;;
27402;SDS011;14862;49.494;8.530;2023-07-30T09:14:05;2.03;;;1.60;;
27402;SDS011;14862;49.494;8.530;2023-07-30T09:16:30;1.40;;;1.30;;
27402;SDS011;14862;49.494;8.530;2023-07-30T09:18:55;1.73;;;1.52;;
27402;SDS011;14862;49.494;8.530;2023-07-30T09:21:30;1.87;;;1.43;;
27402;SDS011;14862;49.494;8.530;2023-07-30T09:23:56;2.15;;;1.30;;
27402;SDS011;14862;49.494;8.530;2023-07-30T09:26:21;2.00;;;1.48;;
27402;SDS011;14862;49.494;8.530;2023-07-30T09:28:47;1.40;;;1.30;;
27402;SDS011;14862;49.494;8.530;2023-07-30T09:31:12;1.97;;;1.73;;
27402;SDS011;14862;49.494;8.530;2023-07-30T09:33:40;3.67;;;1.93;;
27402;SDS011;14862;49.494;8.530;2023-07-30T09:36:06;1.75;;;1.50;;
27402;SDS011;14862;49.494;8.530;2023-07-30T09:38:32;2.30;;;2.00;;
27402;SDS011;14862;49.494;8.530;2023-07-30T09:41:03;2.13;;;1.73;;
27402;SDS011;14862;49.494;8.530;2023-07-30T09:43:29;1.38;;;1.27;;
27402;SDS011;14862;49.494;8.530;2023-07-30T09:46:00;6.05;;;1.40;;
27402;SDS011;14862;49.494;8.530;2023-07-30T09:48:26;2.05;;;1.85;;
27402;SDS011;14862;49.494;8.530;2023-07-30T09:50:51;3.30;;;1.65;;
27402;SDS011;14862;49.494;8.530;2023-07-30T09:53:17;2.85;;;1.77;;
27402;SDS011;14862;49.494;8.530;2023-07-30T09:55:42;5.25;;;1.58;;
27402;SDS011;14862;49.494;8.530;2023-07-30T09:58:08;2.67;;;1.30;;
27402;SDS011;14862;49.494;8.530;2023-07-30T10:00:36;4.10;;;1.30;;
27402;SDS011;14862;49.494;8.530;2023-07-30T10:03:01;2.53;;;1.42;;
27402;SDS011;14862;49.494;8.530;2023-07-30T10:05:28;2.40;;;1.20;;
27402;SDS011;14862;49.494;8.530;2023-07-30T10:08:02;1.98;;;1.40;;
27402;SDS011;14862;49.494;8.530;2023-07-30T10:10:29;1.63;;;1.40;;
27402;SDS011;14862;49.494;8.530;2023-07-30T10:12:55;1.58;;;0.93;;
27402;SDS011;14862;49.494;8.530;2023-07-30T10:15:20;2.33;;;1.80;;
27402;SDS011;14862;49.494;8.530;2023-07-30T10:17:49;2.55;;;1.27;;
27402;SDS011;14862;49.494;8.530;2023-07-30T10:20:27;2.10;;;1.73;;
27402;SDS011;14862;49.494;8.530;2023-07-30T10:22:54;2.05;;;1.70;;
27402;SDS011;14862;49.494;8.530;2023-07-30T10:25:27;1.30;;;1.20;;
27402;SDS011;14862;49.494;8.530;2023-07-30T10:27:52;2.58;;;1.40;;
27402;SDS011;14862;49.494;8.530;2023-07-30T10:30:18;2.60;;;1.40;;
27402;SDS011;14862;49.494;8.530;2023-07-30T10:35:38;2.20;;;1.30;;
27402;SDS011;14862;49.494;8.530;2023-07-30T10:38:19;1.83;;;1.40;;
27402;SDS011;14862;49.494;8.530;2023-07-30T10:41:02;4.53;;;1.77;;
27402;SDS011;14862;49.494;8.530;2023-07-30T10:43:29;1.45;;;1.35;;
27402;SDS011;14862;49.494;8.530;2023-07-30T10:45:55;2.92;;;1.30;;
27402;SDS011;14862;49.494;8.530;2023-07-30T10:48:29;1.65;;;1.13;;
27402;SDS011;14862;49.494;8.530;2023-07-30T10:50:54;3.25;;;2.40;;
27402;SDS011;14862;49.494;8.530;2023-07-30T10:53:19;1.38;;;1.23;;
27402;SDS011;14862;49.494;8.530;2023-07-30T10:55:45;3.00;;;1.67;;
27402;SDS011;14862;49.494;8.530;2023-07-30T10:58:10;1.98;;;1.33;;
27402;SDS011;14862;49.494;8.530;2023-07-30T11:00:35;5.32;;;1.25;;
27402;SDS011;14862;49.494;8.530;2023-07-30T11:03:00;1.52;;;1.20;;
27402;SDS011;14862;49.494;8.530;2023-07-30T11:05:26;3.10;;;1.50;;
27402;SDS011;14862;49.494;8.530;2023-07-30T11:07:51;1.17;;;1.00;;
27402;SDS011;14862;49.494;8.530;2023-07-30T11:10:17;2.88;;;1.30;;
27402;SDS011;14862;49.494;8.530;2023-07-30T11:12:42;1.85;;;1.15;;
27402;SDS011;14862;49.494;8.530;2023-07-30T11:15:07;1.45;;;1.00;;
27402;SDS011;14862;49.494;8.530;2023-07-30T11:17:33;1.75;;;1.10;;
27402;SDS011;14862;49.494;8.530;2023-07-30T11:19:58;1.83;;;1.30;;
27402;SDS011;14862;49.494;8.530;2023-07-30T11:22:30;2.65;;;1.15;;
27402;SDS011;14862;49.494;8.530;2023-07-30T11:24:56;3.23;;;1.40;;
27402;SDS011;14862;49.494;8.530;2023-07-30T11:27:22;4.40;;;1.50;;
27402;SDS011;14862;49.494;8.530;2023-07-30T11:29:53;3.65;;;1.33;;
27402;SDS011;14862;49.494;8.530;2023-07-30T11:32:19;2.83;;;1.20;;
27402;SDS011;14862;49.494;8.530;2023-07-30T11:34:44;2.70;;;1.55;;
27402;SDS011;14862;49.494;8.530;2023-07-30T11:37:09;4.03;;;1.58;;
27402;SDS011;14862;49.494;8.530;2023-07-30T11:39:35;1.90;;;1.30;;
27402;SDS011;14862;49.494;8.530;2023-07-30T11:42:00;3.63;;;1.48;;
27402;SDS011;14862;49.494;8.530;2023-07-30T11:44:32;3.63;;;1.73;;
27402;SDS011;14862;49.494;8.530;2023-07-30T11:46:57;2.88;;;1.50;;
27402;SDS011;14862;49.494;8.530;2023-07-30T11:49:22;2.67;;;1.60;;
27402;SDS011;14862;49.494;8.530;2023-07-30T11:51:47;3.97;;;1.90;;
27402;SDS011;14862;49.494;8.530;2023-07-30T11:54:22;3.20;;;1.48;;
27402;SDS011;14862;49.494;8.530;2023-07-30T11:56:53;3.35;;;2.13;;
27402;SDS011;14862;49.494;8.530;2023-07-30T11:59:19;4.70;;;1.60;;
27402;SDS011;14862;49.494;8.530;2023-07-30T12:01:45;3.83;;;1.55;;
27402;SDS011;14862;49.494;8.530;2023-07-30T12:04:10;2.90;;;1.37;;
27402;SDS011;14862;49.494;8.530;2023-07-30T12:06:39;2.47;;;1.20;;
27402;SDS011;14862;49.494;8.530;2023-07-30T12:09:11;2.70;;;1.40;;
27402;SDS011;14862;49.494;8.530;2023-07-30T12:14:11;3.30;;;1.30;;
27402;SDS011;14862;49.494;8.530;2023-07-30T12:16:36;3.40;;;1.50;;
27402;SDS011;14862;49.494;8.530;2023-07-30T12:19:02;3.25;;;1.60;;
27402;SDS011;14862;49.494;8.530;2023-07-30T12:21:27;3.15;;;1.20;;
27402;SDS011;14862;49.494;8.530;2023-07-30T12:23:52;4.67;;;1.50;;
27402;SDS011;14862;49.494;8.530;2023-07-30T12:26:18;6.10;;;1.50;;
27402;SDS011;14862;49.494;8.530;2023-07-30T12:28:43;6.67;;;1.73;;
27402;SDS011;14862;49.494;8.530;2023-07-30T12:31:08;3.77;;;1.60;;
27402;SDS011;14862;49.494;8.530;2023-07-30T12:33:33;1.83;;;1.33;;
27402;SDS011;14862;49.494;8.530;2023-07-30T12:35:58;2.90;;;1.83;;
27402;SDS011;14862;49.494;8.530;2023-07-30T12:38:24;2.23;;;1.50;;
27402;SDS011;14862;49.494;8.530;2023-07-30T12:40:50;2.83;;;1.60;;
27402;SDS011;14862;49.494;8.530;2023-07-30T12:43:16;5.32;;;1.67;;
27402;SDS011;14862;49.494;8.530;2023-07-30T12:45:44;3.30;;;1.38;;
27402;SDS011;14862;49.494;8.530;2023-07-30T12:48:09;3.83;;;1.58;;
27402;SDS011;14862;49.494;8.530;2023-07-30T12:50:34;3.25;;;1.40;;
27402;SDS011;14862;49.494;8.530;2023-07-30T12:52:59;4.50;;;1.47;;
27402;SDS011;14862;49.494;8.530;2023-07-30T12:55:24;3.43;;;1.60;;
27402;SDS011;14862;49.494;8.530;2023-07-30T12:57:50;2.85;;;1.55;;
27402;SDS011;14862;49.494;8.530;2023-07-30T13:00:15;5.80;;;1.77;;
27402;SDS011;14862;49.494;8.530;2023-07-30T13:02:40;4.32;;;1.70;;
27402;SDS011;14862;49.494;8.530;2023-07-30T13:05:06;4.17;;;2.10;;
27402;SDS011;14862;49.494;8.530;2023-07-30T13:07:31;5.90;;;1.80;;
27402;SDS011;14862;49.494;8.530;2023-07-30T13:10:06;5.50;;;2.27;;
27402;SDS011;14862;49.494;8.530;2023-07-30T13:12:32;3.53;;;1.60;;
27402;SDS011;14862;49.494;8.530;2023-07-30T13:14:57;2.83;;;1.50;;
27402;SDS011;14862;49.494;8.530;2023-07-30T13:17:22;2.42;;;1.52;;
27402;SDS011;14862;49.494;8.530;2023-07-30T13:19:48;2.93;;;1.67;;
27402;SDS011;14862;49.494;8.530;2023-07-30T13:22:13;4.10;;;1.90;;
27402;SDS011;14862;49.494;8.530;2023-07-30T13:24:38;3.50;;;1.83;;
27402;SDS011;14862;49.494;8.530;2023-07-30T13:27:04;2.60;;;1.70;;
27402;SDS011;14862;49.494;8.530;2023-07-30T13:29:29;3.03;;;1.60;;
27402;SDS011;14862;49.494;8.530;2023-07-30T13:31:55;3.47;;;1.40;;
27402;SDS011;14862;49.494;8.530;2023-07-30T13:34:21;4.32;;;1.73;;
27402;SDS011;14862;49.494;8.530;2023-07-30T13:36:46;3.53;;;1.50;;
27402;SDS011;14862;49.494;8.530;2023-07-30T13:39:11;4.27;;;1.60;;
27402;SDS011;14862;49.494;8.530;2023-07-30T13:41:36;4.87;;;1.70;;
27402;SDS011;14862;49.494;8.530;2023-07-30T13:44:02;3.53;;;1.52;;
27402;SDS011;14862;49.494;8.530;2023-07-30T13:46:27;5.38;;;1.73;;
27402;SDS011;14862;49.494;8.530;2023-07-30T13:48:52;2.33;;;1.60;;
27402;SDS011;14862;49.494;8.530;2023-07-30T13:51:17;5.47;;;1.47;;
27402;SDS011;14862;49.494;8.530;2023-07-30T13:53:42;3.47;;;2.15;;
27402;SDS011;14862;49.494;8.530;2023-07-30T13:56:08;4.87;;;1.53;;
27402;SDS011;14862;49.494;8.530;2023-07-30T13:58:33;4.68;;;1.52;;
27402;SDS011;14862;49.494;8.530;2023-07-30T14:00:58;2.65;;;1.60;;
27402;SDS011;14862;49.494;8.530;2023-07-30T14:03:23;4.43;;;2.43;;
27402;SDS011;14862;49.494;8.530;2023-07-30T14:05:49;3.03;;;2.10;;
27402;SDS011;14862;49.494;8.530;2023-07-30T14:08:14;3.87;;;1.43;;
27402;SDS011;14862;49.494;8.530;2023-07-30T14:10:39;4.93;;;1.80;;
27402;SDS011;14862;49.494;8.530;2023-07-30T14:13:04;4.90;;;2.10;;
27402;SDS011;14862;49.494;8.530;2023-07-30T14:15:30;2.60;;;1.43;;
27402;SDS011;14862;49.494;8.530;2023-07-30T14:17:55;3.78;;;1.88;;
27402;SDS011;14862;49.494;8.530;2023-07-30T14:20:21;3.17;;;1.70;;
27402;SDS011;14862;49.494;8.530;2023-07-30T14:22:46;4.40;;;1.50;;
27402;SDS011;14862;49.494;8.530;2023-07-30T14:25:12;4.15;;;2.13;;
27402;SDS011;14862;49.494;8.530;2023-07-30T14:27:37;3.05;;;1.70;;
27402;SDS011;14862;49.494;8.530;2023-07-30T14:30:02;3.92;;;1.60;;
27402;SDS011;14862;49.494;8.530;2023-07-30T14:32:28;5.50;;;1.75;;
27402;SDS011;14862;49.494;8.530;2023-07-30T14:34:53;2.60;;;1.50;;
27402;SDS011;14862;49.494;8.530;2023-07-30T14:37:18;6.50;;;1.90;;
27402;SDS011;14862;49.494;8.530;2023-07-30T14:39:43;6.63;;;2.13;;
27402;SDS011;14862;49.494;8.530;2023-07-30T14:42:10;3.78;;;1.48;;
27402;SDS011;14862;49.494;8.530;2023-07-30T14:44:35;3.83;;;1.40;;